• Join FlightAware (Why Join?)
  • Login
  • US Flag 
08:38PM EST


 

Airport Tracker/Info


-or-


 

Live Flight TrackerFlight Track Log ✈ SWA2147 ✈ 01-May-2013 ✈ KPHX - KMDW

Flight Track Log - Related Links

Times and Time Zones

All times are in EDT time to prevent confusion due to time zone crossing. See the SWA2147 flight status page for this flight to view local times or setup timezone preferences in your user account.

Time Position Orientation Groundspeed Altitude Reporting Facility
EDT Latitude Longitude Course Direction KTS MPH feet Rate Location/Type
06:07PM 33.4333 -112.0333 270° West 159 183 2,300  Level Phoenix TRACON
06:08PM 33.4333 -112.1167 270° West 230 265 4,300 1,800 Climbing Phoenix TRACON
06:09PM 33.4364 -112.1458 277° West 229 264 5,500 2,580 Climbing Albuquerque Center
06:10PM 33.4928 -112.1828 331° Northwest 255 293 8,400 2,460 Climbing Albuquerque Center
06:11PM 33.5575 -112.1364 31° Northeast 294 338 10,700 2,040 Climbing Albuquerque Center
06:12PM 33.5744 -112.0228 80° East 351 404 12,700 2,220 Climbing Albuquerque Center
06:13PM 33.5933 -111.8997 80° East 376 433 15,300 2,340 Climbing Albuquerque Center
06:14PM 33.6128 -111.7731 80° East 389 448 17,600 2,400 Climbing Albuquerque Center
06:15PM 33.6367 -111.6153 80° East 405 466 20,300 2,280 Climbing Albuquerque Center
06:16PM 33.6572 -111.4803 80° East 415 478 22,400 1,800 Climbing Albuquerque Center
06:17PM 33.6775 -111.3378 80° East 433 498 24,100 1,500 Climbing Albuquerque Center
06:18PM 33.7122 -111.1978 73° East 442 509 25,600 1,380 Climbing Albuquerque Center
06:19PM 33.7617 -111.0606 67° East 449 517 27,000 660 Climbing Albuquerque Center
06:20PM 33.8222 -110.8906 67° East 461 531 27,000  Level Albuquerque Center
06:21PM 33.8722 -110.7494 67° East 462 532 27,000 660 Level Albuquerque Center
06:22PM 33.9219 -110.6064 67° East 464 534 28,400 1,320 Climbing Albuquerque Center
06:23PM 33.9728 -110.4619 67° East 467 537 29,800 1,440 Climbing Albuquerque Center
06:24PM 34.0275 -110.3072 67° East 477 549 31,400 1,200 Climbing Albuquerque Center
06:25PM 34.0772 -110.1608 68° East 476 548 32,400 1,020 Climbing Albuquerque Center
06:26PM 34.1375 -109.9869 67° East 480 552 33,600 1,080 Climbing Albuquerque Center
06:27PM 34.1869 -109.8461 67° East 478 550 34,700 840 Climbing Albuquerque Center
06:28PM 34.2428 -109.6786 68° East 480 552 35,400 660 Climbing Albuquerque Center
06:29PM 34.2925 -109.5342 67° East 484 557 36,100 720 Climbing Albuquerque Center
06:30PM 34.3500 -109.3642 68° East 487 560 37,000 420 Climbing Albuquerque Center
06:32PM 34.3967 -109.2219 68° East 483 556 37,000  Level Albuquerque Center
06:33PM 34.4364 -109.0761 72° East 478 550 37,000  Level Albuquerque Center
06:34PM 34.4836 -108.9028 72° East 482 555 37,000  Level Albuquerque Center
06:35PM 34.5247 -108.7558 71° East 483 556 37,000  Level Albuquerque Center
06:36PM 34.5728 -108.5831 71° East 484 557 37,000  Level Albuquerque Center
06:37PM 34.6164 -108.4253 71° East 484 557 37,000  Level Albuquerque Center
06:38PM 34.6594 -108.2692 71° East 487 560 37,000  Level Albuquerque Center
06:39PM 34.7022 -108.1131 72° East 487 560 37,000  Level Albuquerque Center
06:40PM 34.7444 -107.9564 72° East 488 562 37,000  Level Albuquerque Center
06:41PM 34.7869 -107.7994 72° East 489 563 37,000  Level Albuquerque Center
06:42PM 34.8281 -107.6419 72° East 489 563 37,000  Level Albuquerque Center
06:43PM 34.8789 -107.4519 72° East 491 565 37,000  Level Albuquerque Center
06:44PM 34.9206 -107.2933 72° East 494 568 37,000  Level Albuquerque Center
06:45PM 34.9642 -107.1289 72° East 499 574 37,000  Level Albuquerque Center
06:46PM 35.0036 -106.9769 72° East 494 568 37,000  Level Albuquerque Center
06:47PM 35.0492 -106.8011 72° East 488 562 37,000  Level Albuquerque Center
06:48PM 35.1042 -106.6564 65° Northeast 491 565 37,000  Level Albuquerque Center
06:49PM 35.1653 -106.4936 65° Northeast 499 574 37,000  Level Albuquerque Center
06:50PM 35.2217 -106.3400 66° East 497 572 37,000  Level Albuquerque Center
06:51PM 35.2856 -106.1628 66° East 489 563 37,000  Level Albuquerque Center
06:52PM 35.3417 -106.0089 66° East 491 565 37,000  Level Albuquerque Center
06:53PM 35.4014 -105.8514 65° Northeast 504 580 37,000  Level Albuquerque Center
06:54PM 35.4589 -105.6947 66° East 502 578 37,000  Level Albuquerque Center
06:55PM 35.5164 -105.5367 66° East 502 578 37,000  Level Albuquerque Center
06:56PM 35.5697 -105.3806 67° East 495 570 37,000  Level Albuquerque Center
06:57PM 35.6289 -105.2203 66° East 503 579 37,000  Level Albuquerque Center
06:58PM 35.6942 -105.0658 62° Northeast 506 582 37,000  Level Albuquerque Center
06:59PM 35.7728 -104.9208 56° Northeast 505 581 37,000  Level Albuquerque Center
07:00PM 35.8517 -104.7775 56° Northeast 502 578 37,000  Level Albuquerque Center
07:01PM 35.9303 -104.6342 56° Northeast 500 575 37,000  Level Albuquerque Center
07:02PM 36.0067 -104.4900 57° Northeast 497 572 37,000  Level Albuquerque Center
07:03PM 36.0944 -104.3247 57° Northeast 490 564 37,000  Level Albuquerque Center
07:04PM 36.1689 -104.1867 56° Northeast 482 555 37,000  Level Albuquerque Center
07:05PM 36.2444 -104.0447 57° Northeast 485 558 37,000  Level Albuquerque Center
07:07PM 36.3208 -103.9008 57° Northeast 491 565 37,000  Level Albuquerque Center
07:08PM 36.3978 -103.7547 57° Northeast 498 573 37,000  Level Albuquerque Center
07:09PM 36.4747 -103.6078 57° Northeast 501 577 37,000  Level Albuquerque Center
07:10PM 36.5514 -103.4617 57° Northeast 500 575 37,000  Level Albuquerque Center
07:11PM 36.6272 -103.3128 58° Northeast 504 580 37,000  Level Albuquerque Center
07:12PM 36.7036 -103.1650 57° Northeast 503 579 37,000  Level Albuquerque Center
07:13PM 36.7803 -103.0161 57° Northeast 506 582 37,000  Level Albuquerque Center
07:14PM 36.8561 -102.8678 57° Northeast 504 580 37,000  Level Albuquerque Center
07:15PM 36.9422 -102.6981 58° Northeast 505 581 37,000  Level Albuquerque Center
07:16PM 37.0144 -102.5586 57° Northeast 502 578 37,000  Level Albuquerque Center
07:17PM 37.0978 -102.3942 58° Northeast 501 577 37,000  Level Albuquerque Center
07:18PM 37.1686 -102.2514 58° Northeast 503 579 37,000  Level Albuquerque Center
07:19PM 37.2397 -102.1094 58° Northeast 502 578 37,000  Level Albuquerque Center
07:20PM 37.3244 -101.9419 58° Northeast 507 583 37,000  Level Albuquerque Center
07:21PM 37.4075 -101.7719 58° Northeast 509 586 37,000  Level Kansas City Center
07:22PM 37.4919 -101.6036 58° Northeast 510 587 37,000  Level Kansas City Center
07:23PM 37.5631 -101.4569 59° Northeast 511 588 37,000  Level Kansas City Center
07:24PM 37.6478 -101.2853 58° Northeast 513 590 37,000  Level Kansas City Center
07:25PM 37.7167 -101.1433 58° Northeast 515 593 37,000  Level Kansas City Center
07:26PM 37.7919 -100.9878 58° Northeast 511 588 37,000  Level Kansas City Center
07:27PM 37.8769 -100.8128 58° Northeast 512 589 37,000  Level Kansas City Center
07:28PM 37.9408 -100.6614 62° Northeast 507 583 37,000  Level Kansas City Center
07:29PM 37.9939 -100.5044 67° East 503 579 37,000  Level Kansas City Center
07:30PM 38.0553 -100.3208 67° East 504 580 37,000  Level Kansas City Center
07:31PM 38.1067 -100.1636 67° East 503 579 37,000  Level Kansas City Center
07:32PM 38.1681 -99.9817 67° East 503 579 37,000  Level Kansas City Center
07:33PM 38.2197 -99.8242 67° East 503 579 37,000  Level Kansas City Center
07:34PM 38.2808 -99.6389 67° East 507 583 37,000  Level Kansas City Center
07:35PM 38.3328 -99.4847 67° East 506 582 37,000  Level Kansas City Center
07:37PM 38.3869 -99.3183 67° East 507 583 37,000  Level Kansas City Center
07:38PM 38.4411 -99.1522 67° East 508 585 37,000  Level Kansas City Center
07:39PM 38.4953 -98.9869 67° East 506 582 37,000  Level Kansas City Center
07:40PM 38.5483 -98.8208 68° East 504 580 37,000  Level Kansas City Center
07:41PM 38.6000 -98.6211 72° East 491 565 37,000  Level Kansas City Center
07:42PM 38.6261 -98.4500 79° East 488 562 37,000  Level Kansas City Center
07:43PM 38.6469 -98.2828 81° East 478 550 37,000  Level Kansas City Center
07:44PM 38.6619 -98.1133 83° East 476 548 37,000  Level Kansas City Center
07:45PM 38.6767 -97.9461 84° East 472 543 37,000  Level Kansas City Center
07:46PM 38.6886 -97.7789 85° East 470 541 37,000  Level Kansas City Center
07:47PM 38.7003 -97.6111 85° East 471 542 37,000  Level Kansas City Center
07:48PM 38.7117 -97.4442 85° East 470 541 37,000  Level Kansas City Center
07:49PM 38.7247 -97.2447 85° East 468 539 37,000  Level Kansas City Center
07:50PM 38.7675 -97.0853 71° East 474 545 37,000  Level Kansas City Center
07:51PM 38.8206 -96.9269 67° East 481 554 37,000  Level Kansas City Center
07:52PM 38.8708 -96.7694 68° East 478 550 37,000  Level Kansas City Center
07:53PM 38.9250 -96.6119 66° East 481 554 37,000  Level Kansas City Center
07:54PM 38.9814 -96.4319 68° East 480 552 37,000  Level Kansas City Center
07:55PM 39.0286 -96.2794 68° East 480 552 37,000  Level Kansas City Center
07:56PM 39.0858 -96.1003 68° East 483 556 37,000  Level Kansas City Center
07:57PM 39.1342 -95.9478 68° East 482 555 37,000  Level Kansas City Center
07:58PM 39.1831 -95.7936 68° East 483 556 37,000  Level Kansas City Center
07:59PM 39.2397 -95.6139 68° East 482 555 37,000  Level Kansas City Center
08:00PM 39.2928 -95.4439 68° East 479 551 37,000  Level Kansas City Center
08:01PM 39.3417 -95.2872 68° East 472 543 37,000  Level Kansas City Center
08:02PM 39.3942 -95.1175 68° East 471 542 37,000  Level Kansas City Center
08:03PM 39.4372 -94.9769 68° East 467 537 37,000  Level Kansas City Center
08:04PM 39.4911 -94.8025 68° East 466 536 37,000  Level Kansas City Center
08:05PM 39.5361 -94.6519 69° East 466 536 37,000  Level Kansas City Center
08:06PM 39.5892 -94.4783 68° East 465 535 37,000  Level Kansas City Center
08:07PM 39.6333 -94.3283 69° East 465 535 37,000  Level Kansas City Center
08:08PM 39.6778 -94.1797 69° East 463 533 37,000  Level Kansas City Center
08:09PM 39.7292 -94.0056 69° East 464 534 37,000  Level Kansas City Center
08:10PM 39.7739 -93.8561 69° East 462 532 37,000  Level Kansas City Center
08:12PM 39.8231 -93.6817 70° East 468 539 37,000  Level Kansas City Center
08:13PM 39.8694 -93.5281 68° East 463 533 37,000  Level Kansas City Center
08:14PM 39.9150 -93.3725 69° East 464 534 37,000  Level Kansas City Center
08:15PM 39.9575 -93.2186 70° East 459 528 37,000  Level Kansas City Center
08:16PM 40.0008 -93.0639 70° East 459 528 37,000  Level Kansas City Center
08:17PM 40.0528 -92.8817 70° East 454 522 37,000  Level Kansas City Center
08:18PM 40.0931 -92.7361 70° East 454 522 37,000  Level Kansas City Center
08:19PM 40.1564 -92.4828 72° East 454 522 37,000  Level Chicago Center
08:20PM 40.1728 -92.4078 74° East 457 526 37,000  Level Kansas City Center
08:21PM 40.2094 -92.2306 75° East 461 531 37,000  Level Kansas City Center
08:22PM 40.2417 -92.0722 75° East 460 529 37,000  Level Kansas City Center
08:23PM 40.2728 -91.9122 76° East 459 528 37,000 -480 Level Kansas City Center
08:25PM 40.3361 -91.5919 75° East 460 529 35,700 -1,260 Descending Kansas City Center
08:26PM 40.3753 -91.4039 75° East 452 520 33,200 -2,160 Descending Kansas City Center
08:26PM 40.3881 -91.3422 75° East 447 514 32,400 -1,440 Descending Chicago Center
08:27PM 40.4194 -91.1803 76° East 434 499 31,000 -720 Descending Chicago Center
08:29PM 40.4492 -91.0275 76° East 432 497 31,000  Level Chicago Center
08:30PM 40.4786 -90.8733 76° East 435 501 31,000 -240 Level Chicago Center
08:31PM 40.5144 -90.6881 76° East 435 501 30,600 -720 Descending Chicago Center
08:32PM 40.5419 -90.5378 76° East 426 490 29,600 -1,020 Descending Chicago Center
08:33PM 40.5697 -90.3931 76° East 414 476 28,600 -1,020 Descending Chicago Center
08:34PM 40.5964 -90.2511 76° East 404 465 27,600 -900 Descending Chicago Center
08:35PM 40.6181 -90.1061 79° East 404 465 26,800 -900 Descending Chicago Center
08:36PM 40.6561 -89.9178 75° East 442 509 25,800 -1,020 Descending Chicago Center
08:37PM 40.6878 -89.7622 75° East 444 511 24,700 -1,680 Descending Chicago Center
08:38PM 40.7519 -89.6261 58° Northeast 437 503 22,400 -2,220 Descending Chicago Center
08:39PM 40.8050 -89.5031 60° Northeast 420 483 20,200 -2,340 Descending Chicago Center
08:40PM 40.8722 -89.3481 60° Northeast 404 465 17,600 -1,920 Descending Chicago Center
08:41PM 40.9258 -89.2211 61° Northeast 397 457 16,300 -1,140 Descending Chicago Center
08:42PM 40.9794 -89.0978 60° Northeast 390 449 15,300 -1,020 Descending Chicago Center
08:43PM 41.0344 -88.9700 60° Northeast 384 442 14,200 -1,620 Descending Chicago Center
08:44PM 41.1097 -88.8739 44° Northeast 387 445 12,000 -1,800 Descending Chicago Center
08:45PM 41.1819 -88.7814 44° Northeast 369 425 10,500 -1,020 Descending Chicago Center
08:46PM 41.2461 -88.6986 44° Northeast 325 374 10,000 -1,020 Descending Chicago Center
08:47PM 41.3181 -88.6092 43° Northeast 299 344 8,400 -1,500 Descending Chicago Center
08:48PM 41.3761 -88.5367 43° Northeast 292 336 7,000 -1,260 Descending Chicago Center
08:49PM 41.4092 -88.4472 64° Northeast 279 321 5,900 -540 Descending Chicago Center
08:50PM 41.4286 -88.3531 75° East 267 307 5,900 -360 Level Chicago Center
08:51PM 41.4483 -88.2589 74° East 265 305 5,200 -540 Descending Chicago Center
08:52PM 41.4697 -88.1656 73° East 265 305 4,900 -180 Descending Chicago Center
08:53PM 41.5100 -88.0603 63° Northeast 264 304 4,900  Level Chicago Center
08:54PM 41.5419 -87.9722 64° Northeast 263 303 4,900  Level Chicago Center
08:55PM 41.5744 -87.8847 64° Northeast 262 302 4,900  Level Chicago Center
08:56PM 41.6072 -87.7978 63° Northeast 263 303 4,900 -120 Level Chicago Center
08:57PM 41.6150 -87.7228 82° East 225 259 4,700 -600 Descending Chicago Center
08:59PM 41.6261 -87.6531 78° East 203 234 3,700 -1,080 Descending Chicago Center
09:00PM 41.6819 -87.6167 26° Northeast 198 228 2,500 -780 Descending Chicago Center
09:00PM 41.7000 -87.6500 306° West 195 224 2,500 -540 Level Chicago TRACON
09:01PM 41.7333 -87.6833 323° Northwest 200 230 1,800 -420 Descending Chicago TRACON
09:02PM 41.8000 -87.6833 360° North 185 213 1,700 -360 Descending Chicago TRACON
09:03PM 41.8000 -87.7167 270° West 150 173 1,100 -600 Descending Chicago TRACON